sensor_id;sensor_type;location;lat;lon;timestamp;P1;durP1;ratioP1;P2;durP2;ratioP2
23290;SDS011;11814;44.686;10.842;2023-05-13T00:00:34;11.35;;;8.38;;
23290;SDS011;11814;44.686;10.842;2023-05-13T00:03:01;14.27;;;8.88;;
23290;SDS011;11814;44.686;10.842;2023-05-13T00:05:26;11.55;;;7.82;;
23290;SDS011;11814;44.686;10.842;2023-05-13T00:07:52;10.90;;;8.63;;
23290;SDS011;11814;44.686;10.842;2023-05-13T00:10:18;10.82;;;9.05;;
23290;SDS011;11814;44.686;10.842;2023-05-13T00:12:44;9.30;;;8.02;;
23290;SDS011;11814;44.686;10.842;2023-05-13T00:15:10;11.40;;;8.95;;
23290;SDS011;11814;44.686;10.842;2023-05-13T00:17:36;11.75;;;8.10;;
23290;SDS011;11814;44.686;10.842;2023-05-13T00:20:02;15.93;;;8.93;;
23290;SDS011;11814;44.686;10.842;2023-05-13T00:22:28;14.80;;;8.80;;
23290;SDS011;11814;44.686;10.842;2023-05-13T00:24:54;10.93;;;9.00;;
23290;SDS011;11814;44.686;10.842;2023-05-13T00:27:20;11.35;;;8.27;;
23290;SDS011;11814;44.686;10.842;2023-05-13T00:29:46;12.35;;;9.52;;
23290;SDS011;11814;44.686;10.842;2023-05-13T00:32:11;9.90;;;8.85;;
23290;SDS011;11814;44.686;10.842;2023-05-13T00:34:37;14.18;;;8.32;;
23290;SDS011;11814;44.686;10.842;2023-05-13T00:37:03;12.40;;;9.52;;
23290;SDS011;11814;44.686;10.842;2023-05-13T00:39:30;14.95;;;8.90;;
23290;SDS011;11814;44.686;10.842;2023-05-13T00:41:55;15.60;;;10.68;;
23290;SDS011;11814;44.686;10.842;2023-05-13T00:44:21;12.18;;;10.07;;
23290;SDS011;11814;44.686;10.842;2023-05-13T00:46:48;13.93;;;11.13;;
23290;SDS011;11814;44.686;10.842;2023-05-13T00:49:13;14.38;;;10.68;;
23290;SDS011;11814;44.686;10.842;2023-05-13T00:51:39;12.23;;;10.55;;
23290;SDS011;11814;44.686;10.842;2023-05-13T00:54:05;13.27;;;10.85;;
23290;SDS011;11814;44.686;10.842;2023-05-13T00:56:31;16.63;;;11.68;;
23290;SDS011;11814;44.686;10.842;2023-05-13T00:58:57;16.63;;;11.13;;
23290;SDS011;11814;44.686;10.842;2023-05-13T01:01:25;14.25;;;11.43;;
23290;SDS011;11814;44.686;10.842;2023-05-13T01:12:29;13.77;;;11.65;;
23290;SDS011;11814;44.686;10.842;2023-05-13T01:15:12;15.65;;;11.02;;
23290;SDS011;11814;44.686;10.842;2023-05-13T01:17:59;14.38;;;11.40;;
23290;SDS011;11814;44.686;10.842;2023-05-13T01:20:30;15.05;;;12.73;;
23290;SDS011;11814;44.686;10.842;2023-05-13T01:22:58;17.20;;;11.90;;
23290;SDS011;11814;44.686;10.842;2023-05-13T01:25:24;16.33;;;12.25;;
23290;SDS011;11814;44.686;10.842;2023-05-13T01:27:50;15.93;;;11.88;;
23290;SDS011;11814;44.686;10.842;2023-05-13T01:30:17;15.52;;;10.80;;
23290;SDS011;11814;44.686;10.842;2023-05-13T01:32:43;16.20;;;11.43;;
23290;SDS011;11814;44.686;10.842;2023-05-13T01:35:10;17.13;;;11.65;;
23290;SDS011;11814;44.686;10.842;2023-05-13T01:37:37;20.38;;;12.50;;
23290;SDS011;11814;44.686;10.842;2023-05-13T01:40:04;16.88;;;12.30;;
23290;SDS011;11814;44.686;10.842;2023-05-13T01:42:31;17.95;;;12.98;;
23290;SDS011;11814;44.686;10.842;2023-05-13T01:44:58;15.07;;;12.93;;
23290;SDS011;11814;44.686;10.842;2023-05-13T01:47:24;18.55;;;13.73;;
23290;SDS011;11814;44.686;10.842;2023-05-13T01:49:51;17.80;;;13.57;;
23290;SDS011;11814;44.686;10.842;2023-05-13T01:52:16;19.45;;;14.65;;
23290;SDS011;11814;44.686;10.842;2023-05-13T01:54:42;19.92;;;15.05;;
23290;SDS011;11814;44.686;10.842;2023-05-13T01:57:08;19.17;;;15.32;;
23290;SDS011;11814;44.686;10.842;2023-05-13T01:59:34;22.13;;;14.35;;
23290;SDS011;11814;44.686;10.842;2023-05-13T02:02:00;20.10;;;15.52;;
23290;SDS011;11814;44.686;10.842;2023-05-13T02:04:26;19.83;;;15.30;;
23290;SDS011;11814;44.686;10.842;2023-05-13T02:06:51;17.52;;;13.88;;
23290;SDS011;11814;44.686;10.842;2023-05-13T02:09:17;18.35;;;14.40;;
23290;SDS011;11814;44.686;10.842;2023-05-13T02:11:44;21.23;;;14.93;;
23290;SDS011;11814;44.686;10.842;2023-05-13T02:14:10;22.33;;;15.32;;
23290;SDS011;11814;44.686;10.842;2023-05-13T02:16:36;19.08;;;15.32;;
23290;SDS011;11814;44.686;10.842;2023-05-13T02:19:01;24.35;;;15.32;;
23290;SDS011;11814;44.686;10.842;2023-05-13T02:21:27;20.05;;;14.75;;
23290;SDS011;11814;44.686;10.842;2023-05-13T02:23:53;21.50;;;15.35;;
23290;SDS011;11814;44.686;10.842;2023-05-13T02:26:19;21.25;;;15.13;;
23290;SDS011;11814;44.686;10.842;2023-05-13T02:28:45;23.40;;;16.30;;
23290;SDS011;11814;44.686;10.842;2023-05-13T02:31:11;24.08;;;17.05;;
23290;SDS011;11814;44.686;10.842;2023-05-13T02:33:37;22.15;;;16.17;;
23290;SDS011;11814;44.686;10.842;2023-05-13T02:36:02;19.25;;;15.38;;
23290;SDS011;11814;44.686;10.842;2023-05-13T02:38:28;20.15;;;16.02;;
23290;SDS011;11814;44.686;10.842;2023-05-13T02:40:54;21.83;;;15.60;;
23290;SDS011;11814;44.686;10.842;2023-05-13T02:43:20;21.85;;;16.27;;
23290;SDS011;11814;44.686;10.842;2023-05-13T02:45:47;22.92;;;15.82;;
23290;SDS011;11814;44.686;10.842;2023-05-13T02:48:13;16.45;;;13.40;;
23290;SDS011;11814;44.686;10.842;2023-05-13T02:50:39;22.85;;;16.02;;
23290;SDS011;11814;44.686;10.842;2023-05-13T02:53:05;20.67;;;15.15;;
23290;SDS011;11814;44.686;10.842;2023-05-13T02:55:31;25.63;;;15.82;;
23290;SDS011;11814;44.686;10.842;2023-05-13T02:57:57;21.20;;;16.08;;
23290;SDS011;11814;44.686;10.842;2023-05-13T03:00:22;23.08;;;16.92;;
23290;SDS011;11814;44.686;10.842;2023-05-13T03:02:48;22.73;;;16.52;;
23290;SDS011;11814;44.686;10.842;2023-05-13T03:05:14;21.02;;;15.65;;
23290;SDS011;11814;44.686;10.842;2023-05-13T03:07:40;21.33;;;15.77;;
23290;SDS011;11814;44.686;10.842;2023-05-13T03:10:06;21.73;;;17.25;;
23290;SDS011;11814;44.686;10.842;2023-05-13T03:12:32;25.92;;;18.02;;
23290;SDS011;11814;44.686;10.842;2023-05-13T03:14:58;23.40;;;17.83;;
23290;SDS011;11814;44.686;10.842;2023-05-13T03:17:24;32.85;;;19.73;;
23290;SDS011;11814;44.686;10.842;2023-05-13T03:19:49;27.25;;;19.58;;
23290;SDS011;11814;44.686;10.842;2023-05-13T03:22:15;26.98;;;19.88;;
23290;SDS011;11814;44.686;10.842;2023-05-13T03:24:41;24.05;;;19.33;;
23290;SDS011;11814;44.686;10.842;2023-05-13T03:27:08;27.40;;;18.85;;
23290;SDS011;11814;44.686;10.842;2023-05-13T03:29:34;24.85;;;19.00;;
23290;SDS011;11814;44.686;10.842;2023-05-13T03:31:59;27.98;;;19.88;;
23290;SDS011;11814;44.686;10.842;2023-05-13T03:34:25;28.92;;;19.75;;
23290;SDS011;11814;44.686;10.842;2023-05-13T03:36:51;27.10;;;20.27;;
23290;SDS011;11814;44.686;10.842;2023-05-13T03:39:17;34.40;;;21.13;;
23290;SDS011;11814;44.686;10.842;2023-05-13T03:41:42;25.67;;;20.38;;
23290;SDS011;11814;44.686;10.842;2023-05-13T03:44:09;31.85;;;20.95;;
23290;SDS011;11814;44.686;10.842;2023-05-13T03:46:35;31.55;;;21.70;;
23290;SDS011;11814;44.686;10.842;2023-05-13T03:49:01;35.05;;;23.63;;
23290;SDS011;11814;44.686;10.842;2023-05-13T03:51:27;33.47;;;21.83;;
23290;SDS011;11814;44.686;10.842;2023-05-13T03:53:52;31.65;;;22.10;;
23290;SDS011;11814;44.686;10.842;2023-05-13T03:56:18;40.22;;;21.95;;
23290;SDS011;11814;44.686;10.842;2023-05-13T03:58:45;32.58;;;22.77;;
23290;SDS011;11814;44.686;10.842;2023-05-13T04:01:11;31.38;;;22.23;;
23290;SDS011;11814;44.686;10.842;2023-05-13T04:03:36;29.48;;;19.67;;
23290;SDS011;11814;44.686;10.842;2023-05-13T04:06:02;29.58;;;19.98;;
23290;SDS011;11814;44.686;10.842;2023-05-13T04:08:28;27.75;;;21.35;;
23290;SDS011;11814;44.686;10.842;2023-05-13T04:10:54;31.92;;;21.77;;
23290;SDS011;11814;44.686;10.842;2023-05-13T04:13:21;37.65;;;24.33;;
23290;SDS011;11814;44.686;10.842;2023-05-13T04:15:46;33.50;;;23.33;;
23290;SDS011;11814;44.686;10.842;2023-05-13T04:18:12;41.38;;;26.90;;
23290;SDS011;11814;44.686;10.842;2023-05-13T04:20:38;42.45;;;29.15;;
23290;SDS011;11814;44.686;10.842;2023-05-13T04:23:04;51.47;;;32.25;;
23290;SDS011;11814;44.686;10.842;2023-05-13T04:25:30;53.20;;;30.88;;
23290;SDS011;11814;44.686;10.842;2023-05-13T04:27:56;53.88;;;33.17;;
23290;SDS011;11814;44.686;10.842;2023-05-13T04:30:22;57.30;;;33.05;;
23290;SDS011;11814;44.686;10.842;2023-05-13T04:32:47;58.45;;;33.15;;
23290;SDS011;11814;44.686;10.842;2023-05-13T04:35:13;57.08;;;32.20;;
23290;SDS011;11814;44.686;10.842;2023-05-13T04:37:39;56.72;;;32.92;;
23290;SDS011;11814;44.686;10.842;2023-05-13T04:40:05;54.10;;;31.05;;
23290;SDS011;11814;44.686;10.842;2023-05-13T04:42:32;52.28;;;30.45;;
23290;SDS011;11814;44.686;10.842;2023-05-13T04:44:58;62.03;;;32.50;;
23290;SDS011;11814;44.686;10.842;2023-05-13T04:47:23;62.92;;;32.78;;
23290;SDS011;11814;44.686;10.842;2023-05-13T04:49:49;59.08;;;32.50;;
23290;SDS011;11814;44.686;10.842;2023-05-13T04:52:15;63.75;;;32.22;;
23290;SDS011;11814;44.686;10.842;2023-05-13T04:54:40;64.57;;;34.72;;
23290;SDS011;11814;44.686;10.842;2023-05-13T04:57:06;65.75;;;34.70;;
23290;SDS011;11814;44.686;10.842;2023-05-13T04:59:32;60.50;;;34.60;;
23290;SDS011;11814;44.686;10.842;2023-05-13T05:01:59;70.68;;;38.15;;
23290;SDS011;11814;44.686;10.842;2023-05-13T05:04:25;84.60;;;43.55;;
23290;SDS011;11814;44.686;10.842;2023-05-13T05:06:52;84.60;;;44.65;;
23290;SDS011;11814;44.686;10.842;2023-05-13T05:09:17;72.22;;;40.20;;
23290;SDS011;11814;44.686;10.842;2023-05-13T05:11:43;62.35;;;34.42;;
23290;SDS011;11814;44.686;10.842;2023-05-13T05:14:09;72.40;;;38.65;;
23290;SDS011;11814;44.686;10.842;2023-05-13T05:16:35;63.42;;;35.20;;
23290;SDS011;11814;44.686;10.842;2023-05-13T05:19:01;62.33;;;35.13;;
23290;SDS011;11814;44.686;10.842;2023-05-13T05:21:26;58.22;;;34.42;;
23290;SDS011;11814;44.686;10.842;2023-05-13T05:23:52;61.67;;;33.83;;
23290;SDS011;11814;44.686;10.842;2023-05-13T05:26:18;59.78;;;31.85;;
23290;SDS011;11814;44.686;10.842;2023-05-13T05:28:44;57.33;;;33.03;;
23290;SDS011;11814;44.686;10.842;2023-05-13T05:31:10;60.28;;;32.97;;
23290;SDS011;11814;44.686;10.842;2023-05-13T05:33:36;61.33;;;33.35;;
23290;SDS011;11814;44.686;10.842;2023-05-13T05:36:03;65.28;;;37.95;;
23290;SDS011;11814;44.686;10.842;2023-05-13T05:38:29;70.72;;;39.50;;
23290;SDS011;11814;44.686;10.842;2023-05-13T05:40:54;78.68;;;40.83;;
23290;SDS011;11814;44.686;10.842;2023-05-13T05:43:20;75.18;;;42.58;;
23290;SDS011;11814;44.686;10.842;2023-05-13T05:45:46;68.25;;;39.00;;
23290;SDS011;11814;44.686;10.842;2023-05-13T05:48:12;69.15;;;38.47;;
23290;SDS011;11814;44.686;10.842;2023-05-13T05:50:37;65.38;;;38.42;;
23290;SDS011;11814;44.686;10.842;2023-05-13T05:53:04;62.50;;;36.60;;
23290;SDS011;11814;44.686;10.842;2023-05-13T05:55:31;53.95;;;33.30;;
23290;SDS011;11814;44.686;10.842;2023-05-13T05:57:57;55.15;;;32.28;;
23290;SDS011;11814;44.686;10.842;2023-05-13T06:00:28;58.58;;;33.03;;
23290;SDS011;11814;44.686;10.842;2023-05-13T06:02:54;54.15;;;32.33;;
23290;SDS011;11814;44.686;10.842;2023-05-13T06:05:21;55.55;;;32.35;;
23290;SDS011;11814;44.686;10.842;2023-05-13T06:07:47;54.38;;;34.10;;
23290;SDS011;11814;44.686;10.842;2023-05-13T06:10:12;53.85;;;33.22;;
23290;SDS011;11814;44.686;10.842;2023-05-13T06:12:38;59.63;;;35.47;;
23290;SDS011;11814;44.686;10.842;2023-05-13T06:15:05;58.53;;;33.95;;
23290;SDS011;11814;44.686;10.842;2023-05-13T06:17:34;52.95;;;32.53;;
23290;SDS011;11814;44.686;10.842;2023-05-13T06:20:00;52.00;;;32.88;;
23290;SDS011;11814;44.686;10.842;2023-05-13T06:22:26;48.47;;;29.52;;
23290;SDS011;11814;44.686;10.842;2023-05-13T06:24:52;45.63;;;28.80;;
23290;SDS011;11814;44.686;10.842;2023-05-13T06:27:17;44.70;;;28.25;;
23290;SDS011;11814;44.686;10.842;2023-05-13T06:29:43;45.15;;;27.33;;
23290;SDS011;11814;44.686;10.842;2023-05-13T06:32:09;45.08;;;27.45;;
23290;SDS011;11814;44.686;10.842;2023-05-13T06:34:35;40.53;;;25.42;;
23290;SDS011;11814;44.686;10.842;2023-05-13T06:37:02;40.50;;;25.10;;
23290;SDS011;11814;44.686;10.842;2023-05-13T06:39:28;45.67;;;25.38;;
23290;SDS011;11814;44.686;10.842;2023-05-13T06:41:53;41.25;;;26.70;;
23290;SDS011;11814;44.686;10.842;2023-05-13T06:44:19;43.03;;;25.48;;
23290;SDS011;11814;44.686;10.842;2023-05-13T06:46:45;40.78;;;25.58;;
23290;SDS011;11814;44.686;10.842;2023-05-13T06:49:11;39.35;;;23.05;;
23290;SDS011;11814;44.686;10.842;2023-05-13T06:51:36;36.97;;;24.15;;
23290;SDS011;11814;44.686;10.842;2023-05-13T06:54:02;33.78;;;22.80;;
23290;SDS011;11814;44.686;10.842;2023-05-13T06:56:28;40.75;;;23.70;;
23290;SDS011;11814;44.686;10.842;2023-05-13T06:58:54;33.75;;;22.73;;
23290;SDS011;11814;44.686;10.842;2023-05-13T07:01:20;30.48;;;19.67;;
23290;SDS011;11814;44.686;10.842;2023-05-13T07:03:46;29.70;;;19.95;;
23290;SDS011;11814;44.686;10.842;2023-05-13T07:06:11;28.17;;;19.30;;
23290;SDS011;11814;44.686;10.842;2023-05-13T07:08:37;30.85;;;20.65;;
23290;SDS011;11814;44.686;10.842;2023-05-13T07:11:04;30.60;;;20.13;;
23290;SDS011;11814;44.686;10.842;2023-05-13T07:13:30;31.67;;;20.27;;
23290;SDS011;11814;44.686;10.842;2023-05-13T07:15:57;32.88;;;21.25;;
23290;SDS011;11814;44.686;10.842;2023-05-13T07:18:23;33.00;;;20.80;;
23290;SDS011;11814;44.686;10.842;2023-05-13T07:20:49;31.20;;;20.15;;
23290;SDS011;11814;44.686;10.842;2023-05-13T07:23:14;29.60;;;21.95;;
23290;SDS011;11814;44.686;10.842;2023-05-13T07:25:40;34.60;;;22.10;;
23290;SDS011;11814;44.686;10.842;2023-05-13T07:28:06;29.13;;;20.38;;
23290;SDS011;11814;44.686;10.842;2023-05-13T07:30:32;31.80;;;20.48;;
23290;SDS011;11814;44.686;10.842;2023-05-13T07:32:57;30.02;;;20.08;;
23290;SDS011;11814;44.686;10.842;2023-05-13T07:35:23;29.83;;;19.95;;
23290;SDS011;11814;44.686;10.842;2023-05-13T07:37:49;28.25;;;17.95;;
23290;SDS011;11814;44.686;10.842;2023-05-13T07:40:15;26.42;;;17.40;;
23290;SDS011;11814;44.686;10.842;2023-05-13T07:42:41;26.33;;;16.75;;
23290;SDS011;11814;44.686;10.842;2023-05-13T07:45:07;26.17;;;17.25;;
23290;SDS011;11814;44.686;10.842;2023-05-13T07:47:34;27.80;;;18.20;;
23290;SDS011;11814;44.686;10.842;2023-05-13T07:49:59;25.58;;;17.00;;
23290;SDS011;11814;44.686;10.842;2023-05-13T07:52:25;24.83;;;15.80;;
23290;SDS011;11814;44.686;10.842;2023-05-13T07:54:51;22.27;;;15.20;;
23290;SDS011;11814;44.686;10.842;2023-05-13T07:57:17;25.88;;;14.20;;
23290;SDS011;11814;44.686;10.842;2023-05-13T07:59:43;18.73;;;12.50;;
23290;SDS011;11814;44.686;10.842;2023-05-13T08:02:09;17.45;;;12.30;;
23290;SDS011;11814;44.686;10.842;2023-05-13T08:04:35;19.88;;;12.10;;
23290;SDS011;11814;44.686;10.842;2023-05-13T08:07:01;20.83;;;12.95;;
23290;SDS011;11814;44.686;10.842;2023-05-13T08:09:27;18.20;;;12.20;;
23290;SDS011;11814;44.686;10.842;2023-05-13T08:11:53;16.50;;;12.77;;
23290;SDS011;11814;44.686;10.842;2023-05-13T08:14:19;23.20;;;13.82;;
23290;SDS011;11814;44.686;10.842;2023-05-13T08:16:45;18.33;;;12.65;;
23290;SDS011;11814;44.686;10.842;2023-05-13T08:19:12;19.10;;;13.60;;
23290;SDS011;11814;44.686;10.842;2023-05-13T08:21:38;21.27;;;14.13;;
23290;SDS011;11814;44.686;10.842;2023-05-13T08:24:04;19.42;;;13.68;;
23290;SDS011;11814;44.686;10.842;2023-05-13T08:26:30;21.27;;;14.25;;
23290;SDS011;11814;44.686;10.842;2023-05-13T08:28:57;17.23;;;13.13;;
23290;SDS011;11814;44.686;10.842;2023-05-13T08:31:22;17.33;;;11.52;;
23290;SDS011;11814;44.686;10.842;2023-05-13T08:33:52;19.55;;;12.05;;
23290;SDS011;11814;44.686;10.842;2023-05-13T08:36:18;20.02;;;11.73;;
23290;SDS011;11814;44.686;10.842;2023-05-13T08:38:44;15.57;;;11.38;;
23290;SDS011;11814;44.686;10.842;2023-05-13T08:41:11;17.05;;;11.98;;
23290;SDS011;11814;44.686;10.842;2023-05-13T08:43:37;19.48;;;11.82;;
23290;SDS011;11814;44.686;10.842;2023-05-13T08:46:03;15.23;;;10.90;;
23290;SDS011;11814;44.686;10.842;2023-05-13T08:48:33;16.10;;;11.73;;
23290;SDS011;11814;44.686;10.842;2023-05-13T08:51:00;15.07;;;10.20;;
23290;SDS011;11814;44.686;10.842;2023-05-13T08:53:26;14.90;;;10.02;;
23290;SDS011;11814;44.686;10.842;2023-05-13T08:55:53;16.15;;;11.43;;
23290;SDS011;11814;44.686;10.842;2023-05-13T08:58:19;14.93;;;10.90;;
23290;SDS011;11814;44.686;10.842;2023-05-13T09:00:45;15.43;;;11.80;;
23290;SDS011;11814;44.686;10.842;2023-05-13T09:03:12;15.07;;;11.13;;
23290;SDS011;11814;44.686;10.842;2023-05-13T09:05:40;16.90;;;10.93;;
23290;SDS011;11814;44.686;10.842;2023-05-13T09:08:08;15.95;;;11.35;;
23290;SDS011;11814;44.686;10.842;2023-05-13T09:10:34;17.88;;;11.75;;
23290;SDS011;11814;44.686;10.842;2023-05-13T09:13:01;15.77;;;10.70;;
23290;SDS011;11814;44.686;10.842;2023-05-13T09:15:28;13.02;;;9.82;;
23290;SDS011;11814;44.686;10.842;2023-05-13T09:17:55;17.48;;;10.07;;
23290;SDS011;11814;44.686;10.842;2023-05-13T09:20:27;14.93;;;9.85;;
23290;SDS011;11814;44.686;10.842;2023-05-13T09:25:24;12.15;;;8.43;;
23290;SDS011;11814;44.686;10.842;2023-05-13T09:27:54;15.20;;;8.48;;
23290;SDS011;11814;44.686;10.842;2023-05-13T09:30:24;14.50;;;9.80;;
23290;SDS011;11814;44.686;10.842;2023-05-13T09:35:32;18.05;;;10.57;;
23290;SDS011;11814;44.686;10.842;2023-05-13T09:37:59;11.48;;;9.05;;
23290;SDS011;11814;44.686;10.842;2023-05-13T09:40:25;16.48;;;10.93;;
23290;SDS011;11814;44.686;10.842;2023-05-13T09:42:55;12.73;;;9.15;;
23290;SDS011;11814;44.686;10.842;2023-05-13T09:45:24;12.82;;;8.52;;
23290;SDS011;11814;44.686;10.842;2023-05-13T09:47:50;13.98;;;9.88;;
23290;SDS011;11814;44.686;10.842;2023-05-13T09:50:17;19.15;;;10.90;;
23290;SDS011;11814;44.686;10.842;2023-05-13T09:52:43;13.70;;;9.45;;
23290;SDS011;11814;44.686;10.842;2023-05-13T09:55:09;13.35;;;8.55;;
23290;SDS011;11814;44.686;10.842;2023-05-13T09:57:35;12.15;;;8.43;;
23290;SDS011;11814;44.686;10.842;2023-05-13T10:00:03;16.20;;;8.60;;
23290;SDS011;11814;44.686;10.842;2023-05-13T10:02:30;12.13;;;7.40;;
23290;SDS011;11814;44.686;10.842;2023-05-13T10:04:56;12.45;;;7.78;;
23290;SDS011;11814;44.686;10.842;2023-05-13T10:07:22;11.88;;;7.95;;
23290;SDS011;11814;44.686;10.842;2023-05-13T10:10:02;9.10;;;6.20;;
23290;SDS011;11814;44.686;10.842;2023-05-13T10:12:31;10.73;;;6.38;;
23290;SDS011;11814;44.686;10.842;2023-05-13T10:15:00;11.70;;;7.75;;
23290;SDS011;11814;44.686;10.842;2023-05-13T10:17:26;11.98;;;7.95;;
23290;SDS011;11814;44.686;10.842;2023-05-13T10:19:54;10.18;;;6.75;;
23290;SDS011;11814;44.686;10.842;2023-05-13T10:22:26;11.55;;;6.00;;
23290;SDS011;11814;44.686;10.842;2023-05-13T10:24:56;9.35;;;6.15;;
23290;SDS011;11814;44.686;10.842;2023-05-13T10:27:27;11.65;;;7.80;;
23290;SDS011;11814;44.686;10.842;2023-05-13T10:29:54;10.15;;;6.78;;
23290;SDS011;11814;44.686;10.842;2023-05-13T10:32:24;8.23;;;6.13;;
23290;SDS011;11814;44.686;10.842;2023-05-13T10:35:15;7.22;;;4.35;;
23290;SDS011;11814;44.686;10.842;2023-05-13T10:40:20;10.85;;;6.55;;
23290;SDS011;11814;44.686;10.842;2023-05-13T10:43:09;13.65;;;6.97;;
23290;SDS011;11814;44.686;10.842;2023-05-13T10:45:37;9.93;;;6.22;;
23290;SDS011;11814;44.686;10.842;2023-05-13T10:48:06;9.07;;;6.18;;
23290;SDS011;11814;44.686;10.842;2023-05-13T10:50:35;8.35;;;4.80;;
23290;SDS011;11814;44.686;10.842;2023-05-13T10:53:06;8.68;;;3.78;;
23290;SDS011;11814;44.686;10.842;2023-05-13T10:55:43;11.02;;;4.68;;
23290;SDS011;11814;44.686;10.842;2023-05-13T10:58:13;7.88;;;5.05;;
23290;SDS011;11814;44.686;10.842;2023-05-13T11:00:41;6.97;;;4.22;;
23290;SDS011;11814;44.686;10.842;2023-05-13T11:03:28;5.78;;;3.28;;
23290;SDS011;11814;44.686;10.842;2023-05-13T11:05:58;6.90;;;2.90;;
23290;SDS011;11814;44.686;10.842;2023-05-13T11:08:39;6.25;;;3.47;;
23290;SDS011;11814;44.686;10.842;2023-05-13T11:16:43;4.20;;;2.28;;
23290;SDS011;11814;44.686;10.842;2023-05-13T11:19:20;4.78;;;2.42;;
23290;SDS011;11814;44.686;10.842;2023-05-13T11:21:54;5.28;;;3.10;;
23290;SDS011;11814;44.686;10.842;2023-05-13T11:24:22;6.88;;;2.80;;
23290;SDS011;11814;44.686;10.842;2023-05-13T11:26:50;6.25;;;2.40;;
23290;SDS011;11814;44.686;10.842;2023-05-13T11:30:20;6.93;;;2.58;;
23290;SDS011;11814;44.686;10.842;2023-05-13T11:35:19;4.20;;;2.00;;
23290;SDS011;11814;44.686;10.842;2023-05-13T11:37:45;4.45;;;1.85;;
23290;SDS011;11814;44.686;10.842;2023-05-13T11:40:18;4.70;;;1.67;;
23290;SDS011;11814;44.686;10.842;2023-05-13T11:42:45;4.80;;;1.83;;
23290;SDS011;11814;44.686;10.842;2023-05-13T11:45:12;7.18;;;2.05;;
23290;SDS011;11814;44.686;10.842;2023-05-13T11:47:38;3.13;;;1.90;;
23290;SDS011;11814;44.686;10.842;2023-05-13T11:50:16;4.68;;;2.28;;
23290;SDS011;11814;44.686;10.842;2023-05-13T11:52:43;4.10;;;1.52;;
23290;SDS011;11814;44.686;10.842;2023-05-13T11:55:10;6.22;;;1.50;;
23290;SDS011;11814;44.686;10.842;2023-05-13T11:57:35;4.43;;;1.30;;
23290;SDS011;11814;44.686;10.842;2023-05-13T12:00:02;3.10;;;1.25;;
23290;SDS011;11814;44.686;10.842;2023-05-13T12:02:30;4.22;;;1.20;;
23290;SDS011;11814;44.686;10.842;2023-05-13T12:05:03;5.38;;;1.60;;
23290;SDS011;11814;44.686;10.842;2023-05-13T12:07:30;5.53;;;1.52;;
23290;SDS011;11814;44.686;10.842;2023-05-13T12:09:57;3.83;;;1.40;;
23290;SDS011;11814;44.686;10.842;2023-05-13T12:12:24;2.78;;;1.02;;
23290;SDS011;11814;44.686;10.842;2023-05-13T12:14:51;2.80;;;1.35;;
23290;SDS011;11814;44.686;10.842;2023-05-13T12:17:19;2.90;;;1.10;;
23290;SDS011;11814;44.686;10.842;2023-05-13T12:27:55;4.72;;;1.38;;
23290;SDS011;11814;44.686;10.842;2023-05-13T12:30:21;3.42;;;1.20;;
23290;SDS011;11814;44.686;10.842;2023-05-13T12:32:47;3.72;;;1.48;;
23290;SDS011;11814;44.686;10.842;2023-05-13T12:35:13;4.38;;;1.40;;
23290;SDS011;11814;44.686;10.842;2023-05-13T12:37:39;5.53;;;1.08;;
23290;SDS011;11814;44.686;10.842;2023-05-13T12:40:11;2.78;;;1.08;;
23290;SDS011;11814;44.686;10.842;2023-05-13T12:42:43;2.67;;;0.93;;
23290;SDS011;11814;44.686;10.842;2023-05-13T12:45:09;4.20;;;1.00;;
23290;SDS011;11814;44.686;10.842;2023-05-13T12:47:50;2.45;;;0.88;;
23290;SDS011;11814;44.686;10.842;2023-05-13T12:50:16;1.88;;;0.70;;
23290;SDS011;11814;44.686;10.842;2023-05-13T12:52:43;7.68;;;0.70;;
23290;SDS011;11814;44.686;10.842;2023-05-13T12:55:08;8.55;;;0.75;;
23290;SDS011;11814;44.686;10.842;2023-05-13T12:57:36;5.35;;;0.50;;
23290;SDS011;11814;44.686;10.842;2023-05-13T13:00:02;3.22;;;0.35;;
23290;SDS011;11814;44.686;10.842;2023-05-13T13:02:28;3.00;;;0.40;;
23290;SDS011;11814;44.686;10.842;2023-05-13T13:04:54;1.05;;;0.30;;
23290;SDS011;11814;44.686;10.842;2023-05-13T13:07:20;1.30;;;0.40;;
23290;SDS011;11814;44.686;10.842;2023-05-13T13:09:46;3.63;;;0.50;;
23290;SDS011;11814;44.686;10.842;2023-05-13T13:12:11;9.70;;;1.40;;
23290;SDS011;11814;44.686;10.842;2023-05-13T13:14:38;7.35;;;0.40;;
23290;SDS011;11814;44.686;10.842;2023-05-13T13:17:03;7.03;;;0.73;;
23290;SDS011;11814;44.686;10.842;2023-05-13T13:19:29;7.30;;;0.50;;
23290;SDS011;11814;44.686;10.842;2023-05-13T13:21:55;4.18;;;0.32;;
23290;SDS011;11814;44.686;10.842;2023-05-13T13:24:21;3.20;;;0.50;;
23290;SDS011;11814;44.686;10.842;2023-05-13T13:26:47;3.08;;;0.47;;
23290;SDS011;11814;44.686;10.842;2023-05-13T13:29:14;2.22;;;0.40;;
23290;SDS011;11814;44.686;10.842;2023-05-13T13:31:39;4.10;;;0.50;;
23290;SDS011;11814;44.686;10.842;2023-05-13T13:34:05;1.15;;;0.35;;
23290;SDS011;11814;44.686;10.842;2023-05-13T13:36:33;3.40;;;0.40;;
23290;SDS011;11814;44.686;10.842;2023-05-13T13:38:59;3.30;;;0.40;;
23290;SDS011;11814;44.686;10.842;2023-05-13T13:41:25;1.33;;;0.40;;
23290;SDS011;11814;44.686;10.842;2023-05-13T13:43:51;1.20;;;0.30;;
23290;SDS011;11814;44.686;10.842;2023-05-13T13:46:16;2.92;;;0.52;;
23290;SDS011;11814;44.686;10.842;2023-05-13T13:48:42;3.97;;;0.40;;
23290;SDS011;11814;44.686;10.842;2023-05-13T13:51:08;3.97;;;0.50;;
23290;SDS011;11814;44.686;10.842;2023-05-13T13:53:34;1.25;;;0.40;;
23290;SDS011;11814;44.686;10.842;2023-05-13T13:55:59;2.72;;;0.50;;
23290;SDS011;11814;44.686;10.842;2023-05-13T13:58:25;2.55;;;0.50;;
23290;SDS011;11814;44.686;10.842;2023-05-13T14:00:51;1.58;;;0.40;;
23290;SDS011;11814;44.686;10.842;2023-05-13T14:03:17;3.95;;;0.50;;
23290;SDS011;11814;44.686;10.842;2023-05-13T14:05:42;1.90;;;0.45;;
23290;SDS011;11814;44.686;10.842;2023-05-13T14:08:08;0.70;;;0.30;;
23290;SDS011;11814;44.686;10.842;2023-05-13T14:10:34;0.82;;;0.40;;
23290;SDS011;11814;44.686;10.842;2023-05-13T14:13:00;2.97;;;0.30;;
23290;SDS011;11814;44.686;10.842;2023-05-13T14:15:26;1.83;;;0.40;;
23290;SDS011;11814;44.686;10.842;2023-05-13T14:17:54;1.88;;;0.40;;
23290;SDS011;11814;44.686;10.842;2023-05-13T14:20:20;1.05;;;0.32;;
23290;SDS011;11814;44.686;10.842;2023-05-13T14:22:46;1.35;;;0.20;;
23290;SDS011;11814;44.686;10.842;2023-05-13T14:25:12;3.63;;;0.57;;
23290;SDS011;11814;44.686;10.842;2023-05-13T14:27:38;1.52;;;0.50;;
23290;SDS011;11814;44.686;10.842;2023-05-13T14:30:04;3.17;;;0.50;;
23290;SDS011;11814;44.686;10.842;2023-05-13T14:32:32;0.70;;;0.30;;
23290;SDS011;11814;44.686;10.842;2023-05-13T14:34:58;3.13;;;0.40;;
23290;SDS011;11814;44.686;10.842;2023-05-13T14:37:24;0.73;;;0.22;;
23290;SDS011;11814;44.686;10.842;2023-05-13T14:39:50;2.97;;;0.70;;
23290;SDS011;11814;44.686;10.842;2023-05-13T14:42:16;2.28;;;0.30;;
23290;SDS011;11814;44.686;10.842;2023-05-13T14:44:42;1.98;;;0.38;;
23290;SDS011;11814;44.686;10.842;2023-05-13T14:47:08;1.92;;;0.40;;
23290;SDS011;11814;44.686;10.842;2023-05-13T14:49:34;4.40;;;0.50;;